createdAt,value
2023-04-11T00:00:01.726Z,9.58
2023-04-11T00:03:00.074Z,9.53
2023-04-11T00:05:46.849Z,9.48
2023-04-11T00:08:32.517Z,9.42
2023-04-11T00:11:18.321Z,9.43
2023-04-11T00:14:05.496Z,9.35
2023-04-11T00:16:53.764Z,9.30
2023-04-11T00:19:40.081Z,9.32
2023-04-11T00:22:27.592Z,9.33
2023-04-11T00:25:13.621Z,9.31
2023-04-11T00:27:59.391Z,9.27
2023-04-11T00:30:45.138Z,9.24
2023-04-11T00:33:32.183Z,9.19
2023-04-11T00:36:18.610Z,9.19
2023-04-11T00:39:04.935Z,9.18
2023-04-11T00:41:50.716Z,9.15
2023-04-11T00:44:37.005Z,9.12
2023-04-11T00:47:22.872Z,9.09
2023-04-11T00:50:13.767Z,9.10
2023-04-11T00:52:59.461Z,9.09
2023-04-11T00:55:45.292Z,9.09
2023-04-11T00:58:32.020Z,9.09
2023-04-11T01:01:19.812Z,9.07
2023-04-11T01:04:06.376Z,9.06
2023-04-11T01:06:55.527Z,9.03
2023-04-11T01:09:41.582Z,9.04
2023-04-11T01:12:27.556Z,9.03
2023-04-11T01:15:13.209Z,9.02
2023-04-11T01:18:02.074Z,9.04
2023-04-11T01:20:48.326Z,9.02
2023-04-11T01:23:35.428Z,9.03
2023-04-11T01:26:21.670Z,8.97
2023-04-11T01:29:08.297Z,9.01
2023-04-11T01:31:54.929Z,9.00
2023-04-11T01:34:41.173Z,8.99
2023-04-11T01:37:27.280Z,8.96
2023-04-11T01:40:14.925Z,8.96
2023-04-11T01:43:01.762Z,8.94
2023-04-11T01:45:47.697Z,8.93
2023-04-11T01:48:34.582Z,8.90
2023-04-11T01:51:20.913Z,8.87
2023-04-11T01:54:06.728Z,8.84
2023-04-11T01:56:54.829Z,8.83
2023-04-11T01:59:40.622Z,8.80
2023-04-11T02:02:27.092Z,8.78
2023-04-11T02:05:13.001Z,8.75
2023-04-11T02:07:58.749Z,8.68
2023-04-11T02:10:44.616Z,8.65
2023-04-11T02:13:31.895Z,8.65
2023-04-11T02:16:20.701Z,8.64
2023-04-11T02:19:07.081Z,8.61
2023-04-11T02:21:52.906Z,8.57
2023-04-11T02:24:39.285Z,8.59
2023-04-11T02:27:25.025Z,8.54
2023-04-11T02:30:15.090Z,8.50
2023-04-11T02:33:03.980Z,8.51
2023-04-11T02:35:49.913Z,8.51
2023-04-11T02:38:37.442Z,8.51
2023-04-11T02:41:23.204Z,8.53
2023-04-11T02:44:11.380Z,8.54
2023-04-11T02:47:00.755Z,8.58
2023-04-11T02:49:46.804Z,8.58
2023-04-11T02:52:37.542Z,8.61
2023-04-11T02:55:24.055Z,8.58
2023-04-11T02:58:11.032Z,8.59
2023-04-11T03:00:57.121Z,8.63
2023-04-11T03:03:45.136Z,8.61
2023-04-11T03:06:33.280Z,8.58
2023-04-11T03:09:20.396Z,8.51
2023-04-11T03:12:07.077Z,8.30
2023-04-11T03:14:55.666Z,8.18
2023-04-11T03:17:41.667Z,8.05
2023-04-11T03:20:32.845Z,8.00
2023-04-11T03:23:19.053Z,7.93
2023-04-11T03:26:05.150Z,7.84
2023-04-11T03:28:51.628Z,7.76
2023-04-11T03:31:38.840Z,7.71
2023-04-11T03:34:26.029Z,7.59
2023-04-11T03:37:14.273Z,7.51
2023-04-11T03:40:00.547Z,7.39
2023-04-11T03:42:47.022Z,7.36
2023-04-11T03:45:37.093Z,7.23
2023-04-11T03:48:29.797Z,7.20
2023-04-11T03:51:22.143Z,7.15
2023-04-11T03:54:24.603Z,7.10
2023-04-11T03:57:12.934Z,7.08
2023-04-11T04:00:00.269Z,7.06
2023-04-11T04:02:54.668Z,7.04
2023-04-11T04:05:48.422Z,7.02
2023-04-11T04:08:35.822Z,7.03
2023-04-11T04:11:23.383Z,7.00
2023-04-11T04:14:16.092Z,7.00
2023-04-11T04:17:02.390Z,6.98
2023-04-11T04:19:49.550Z,6.97
2023-04-11T04:22:36.493Z,6.94
2023-04-11T04:25:24.535Z,6.96
2023-04-11T04:28:14.554Z,6.98
2023-04-11T04:31:02.114Z,6.98
2023-04-11T04:33:53.875Z,7.00
2023-04-11T04:36:47.585Z,7.01
2023-04-11T04:39:38.070Z,7.02
2023-04-11T04:42:25.654Z,7.04
2023-04-11T04:45:16.267Z,7.04
2023-04-11T04:48:02.592Z,7.04
2023-04-11T04:50:48.848Z,7.03
2023-04-11T04:53:38.509Z,7.02
2023-04-11T04:56:26.168Z,7.04
2023-04-11T04:59:15.564Z,7.04
2023-04-11T05:02:08.096Z,7.06
2023-04-11T05:04:54.294Z,7.06
2023-04-11T05:07:40.802Z,7.04
2023-04-11T05:10:26.941Z,7.06
2023-04-11T05:13:13.178Z,7.08
2023-04-11T05:15:59.309Z,7.09
2023-04-11T05:18:47.377Z,7.12
2023-04-11T05:21:33.914Z,7.12
2023-04-11T05:24:20.316Z,7.16
2023-04-11T05:27:06.437Z,7.20
2023-04-11T05:29:54.103Z,7.22
2023-04-11T05:32:40.627Z,7.24
2023-04-11T05:35:28.305Z,7.25
2023-04-11T05:38:14.541Z,7.26
2023-04-11T05:41:00.449Z,7.28
2023-04-11T05:43:46.849Z,7.32
2023-04-11T05:46:35.527Z,7.28
2023-04-11T05:49:21.373Z,7.33
2023-04-11T05:52:09.854Z,7.35
2023-04-11T05:54:55.880Z,7.38
2023-04-11T05:57:41.686Z,7.36
2023-04-11T06:00:30.890Z,7.40
2023-04-11T06:03:17.903Z,7.36
2023-04-11T06:06:04.175Z,7.42
2023-04-11T06:08:51.988Z,7.43
2023-04-11T06:11:38.035Z,7.40
2023-04-11T06:14:23.827Z,7.32
2023-04-11T06:17:09.601Z,7.33
2023-04-11T06:19:55.680Z,7.27
2023-04-11T06:22:41.653Z,7.25
2023-04-11T06:25:29.088Z,7.13
2023-04-11T06:28:14.878Z,7.09
2023-04-11T06:31:00.655Z,7.07
2023-04-11T06:33:46.853Z,7.05
2023-04-11T06:36:32.976Z,7.03
2023-04-11T06:39:19.358Z,7.05
2023-04-11T06:42:06.640Z,7.05
2023-04-11T06:44:53.154Z,7.05
2023-04-11T06:47:39.114Z,7.10
2023-04-11T06:50:24.874Z,7.13
2023-04-11T06:53:11.118Z,7.19
2023-04-11T06:55:57.869Z,7.33
2023-04-11T06:58:45.300Z,7.33
2023-04-11T07:01:35.567Z,7.36
2023-04-11T07:04:21.939Z,7.45
2023-04-11T07:07:07.978Z,7.52
2023-04-11T07:09:53.728Z,7.62
2023-04-11T07:12:39.449Z,7.65
2023-04-11T07:15:27.688Z,7.73
2023-04-11T07:18:13.709Z,7.81
2023-04-11T07:21:00.080Z,7.87
2023-04-11T07:23:45.916Z,7.90
2023-04-11T07:26:32.688Z,8.02
2023-04-11T07:29:19.342Z,8.05
2023-04-11T07:32:06.810Z,8.14
2023-04-11T07:34:52.801Z,8.28
2023-04-11T07:37:38.766Z,8.38
2023-04-11T07:40:24.665Z,8.58
2023-04-11T07:43:10.488Z,8.73
2023-04-11T07:45:57.060Z,8.85
2023-04-11T07:48:44.145Z,8.84
2023-04-11T07:51:30.028Z,8.92
2023-04-11T07:54:15.890Z,9.00
2023-04-11T07:57:02.066Z,9.01
2023-04-11T07:59:48.325Z,9.10
2023-04-11T08:02:34.581Z,9.37
2023-04-11T08:05:22.184Z,9.54
2023-04-11T08:08:08.296Z,9.81
2023-04-11T08:10:54.784Z,10.38
2023-04-11T08:13:40.668Z,10.50
2023-04-11T08:16:26.780Z,10.54
2023-04-11T08:19:13.080Z,10.66
2023-04-11T08:22:00.151Z,10.77
2023-04-11T08:24:46.578Z,10.78
2023-04-11T08:27:32.491Z,10.80
2023-04-11T08:30:18.490Z,10.68
2023-04-11T08:33:04.631Z,10.52
2023-04-11T08:35:50.610Z,10.56
2023-04-11T08:38:37.738Z,10.50
2023-04-11T08:41:23.782Z,10.43
2023-04-11T08:44:11.655Z,10.40
2023-04-11T08:46:57.449Z,10.51
2023-04-11T08:49:43.345Z,10.67
2023-04-11T08:52:29.695Z,10.71
2023-04-11T08:55:16.845Z,10.64
2023-04-11T08:58:03.703Z,10.73
2023-04-11T09:00:49.656Z,10.83
2023-04-11T09:03:36.613Z,11.23
2023-04-11T09:06:22.435Z,11.45
2023-04-11T09:09:08.571Z,11.71
2023-04-11T09:11:55.795Z,12.19
2023-04-11T09:14:41.988Z,12.42
2023-04-11T09:17:28.648Z,12.62
2023-04-11T09:20:18.621Z,12.66
2023-04-11T09:23:04.778Z,12.84
2023-04-11T09:25:50.361Z,12.96
2023-04-11T09:28:44.572Z,12.94
2023-04-11T09:31:39.844Z,12.92
2023-04-11T09:34:27.679Z,13.17
2023-04-11T09:37:13.532Z,12.89
2023-04-11T09:40:00.084Z,12.90
2023-04-11T09:42:46.643Z,12.84
2023-04-11T09:45:44.146Z,12.92
2023-04-11T09:48:46.649Z,12.78
2023-04-11T09:51:44.455Z,12.49
2023-04-11T09:54:30.201Z,12.31
2023-04-11T09:57:16.051Z,12.24
2023-04-11T10:00:02.247Z,12.12
2023-04-11T10:02:53.802Z,12.05
2023-04-11T10:05:39.817Z,12.03
2023-04-11T10:08:28.275Z,12.12
2023-04-11T10:11:14.712Z,12.35
2023-04-11T10:14:00.508Z,12.57
2023-04-11T10:17:01.468Z,12.92
2023-04-11T10:19:48.590Z,13.24
2023-04-11T10:22:53.330Z,13.64
2023-04-11T10:25:49.066Z,14.15
2023-04-11T10:28:37.747Z,14.06
2023-04-11T10:31:23.813Z,14.19
2023-04-11T10:34:13.168Z,14.39
2023-04-11T10:37:04.618Z,14.64
2023-04-11T10:40:09.251Z,15.02
2023-04-11T10:42:55.308Z,15.43
2023-04-11T10:45:42.632Z,15.59
2023-04-11T10:48:28.692Z,15.41
2023-04-11T10:51:23.335Z,15.37
2023-04-11T10:54:18.910Z,15.47
2023-04-11T10:57:04.673Z,15.53
2023-04-11T11:00:15.697Z,15.77
2023-04-11T11:03:01.467Z,15.94
2023-04-11T11:05:47.746Z,15.75
2023-04-11T11:08:34.086Z,15.43
2023-04-11T11:11:21.426Z,15.87
2023-04-11T11:14:08.960Z,16.04
2023-04-11T11:16:54.727Z,16.47
2023-04-11T11:19:44.044Z,16.35
2023-04-11T11:22:30.067Z,16.58
2023-04-11T11:25:15.991Z,16.87
2023-04-11T11:28:04.592Z,17.03
2023-04-11T11:30:52.994Z,17.17
2023-04-11T11:33:40.787Z,17.47
2023-04-11T11:36:26.671Z,17.90
2023-04-11T11:39:12.484Z,18.10
2023-04-11T11:41:58.378Z,18.09
2023-04-11T11:44:45.745Z,17.89
2023-04-11T11:47:31.815Z,17.57
2023-04-11T11:50:27.712Z,17.22
2023-04-11T11:53:14.602Z,17.09
2023-04-11T11:56:00.657Z,17.02
2023-04-11T11:58:46.745Z,17.52
2023-04-11T12:01:34.015Z,17.61
2023-04-11T12:04:20.357Z,17.55
2023-04-11T12:07:09.728Z,17.49
2023-04-11T12:09:56.968Z,17.18
2023-04-11T12:12:43.543Z,17.30
2023-04-11T12:15:40.548Z,17.33
2023-04-11T12:18:28.486Z,17.65
2023-04-11T12:21:14.646Z,18.03
2023-04-11T12:24:00.445Z,18.28
2023-04-11T12:27:05.473Z,18.15
2023-04-11T12:29:52.668Z,17.94
2023-04-11T12:32:38.741Z,17.87
2023-04-11T12:35:25.807Z,17.46
2023-04-11T12:38:13.343Z,17.05
2023-04-11T12:41:20.349Z,16.74
2023-04-11T12:44:08.429Z,16.40
2023-04-11T12:46:54.211Z,15.84
2023-04-11T12:49:39.995Z,15.42
2023-04-11T12:52:27.229Z,15.18
2023-04-11T12:55:13.410Z,14.48
2023-04-11T12:57:59.714Z,14.40
2023-04-11T13:00:45.692Z,14.19
2023-04-11T13:03:31.498Z,13.86
2023-04-11T13:06:18.930Z,13.67
2023-04-11T13:09:07.778Z,13.53
2023-04-11T13:11:54.118Z,13.43
2023-04-11T13:14:40.060Z,13.28
2023-04-11T13:17:26.063Z,13.22
2023-04-11T13:20:12.428Z,13.21
2023-04-11T13:22:58.639Z,13.15
2023-04-11T13:25:45.851Z,13.11
2023-04-11T13:28:34.696Z,13.07
2023-04-11T13:31:26.313Z,13.04
2023-04-11T13:34:12.573Z,12.68
2023-04-11T13:36:58.499Z,12.66
2023-04-11T13:39:44.970Z,12.57
2023-04-11T13:42:32.043Z,12.38
2023-04-11T13:45:17.923Z,12.23
2023-04-11T13:48:03.649Z,12.21
2023-04-11T13:50:49.445Z,12.12
2023-04-11T13:53:35.319Z,11.89
2023-04-11T13:56:21.414Z,11.92
2023-04-11T13:59:08.708Z,11.82
2023-04-11T14:01:54.543Z,11.75
2023-04-11T14:04:40.572Z,11.64
2023-04-11T14:07:26.948Z,11.62
2023-04-11T14:10:12.662Z,11.50
2023-04-11T14:12:58.434Z,11.49
2023-04-11T14:15:47.690Z,11.42
2023-04-11T14:18:35.848Z,11.29
2023-04-11T14:21:21.769Z,11.30
2023-04-11T14:24:07.795Z,11.19
2023-04-11T14:26:53.708Z,11.15
2023-04-11T14:29:39.417Z,11.07
2023-04-11T14:32:26.761Z,11.03
2023-04-11T14:35:13.037Z,11.05
2023-04-11T14:37:59.325Z,11.14
2023-04-11T14:40:45.987Z,11.19
2023-04-11T14:43:32.186Z,11.22
2023-04-11T14:46:18.226Z,11.27
2023-04-11T14:49:06.238Z,11.29
2023-04-11T14:51:52.013Z,11.17
2023-04-11T14:54:38.070Z,11.06
2023-04-11T14:57:24.241Z,11.01
2023-04-11T15:00:15.381Z,10.94
2023-04-11T15:03:01.510Z,11.01
2023-04-11T15:05:48.696Z,10.92
2023-04-11T15:08:35.020Z,10.80
2023-04-11T15:11:20.840Z,10.70
2023-04-11T15:14:06.595Z,10.72
2023-04-11T15:16:52.410Z,10.59
2023-04-11T15:19:38.498Z,10.62
2023-04-11T15:22:26.331Z,10.63
2023-04-11T15:25:12.704Z,10.50
2023-04-11T15:27:58.733Z,10.46
2023-04-11T15:30:47.235Z,10.44
2023-04-11T15:33:33.284Z,10.40
2023-04-11T15:36:19.035Z,10.35
2023-04-11T15:39:06.239Z,10.28
2023-04-11T15:41:52.285Z,10.23
2023-04-11T15:44:38.078Z,10.14
2023-04-11T15:47:24.010Z,10.14
2023-04-11T15:50:10.596Z,10.07
2023-04-11T15:52:57.869Z,10.05
2023-04-11T15:55:46.821Z,9.98
2023-04-11T15:58:33.894Z,9.96
2023-04-11T16:01:22.647Z,9.94
2023-04-11T16:04:08.972Z,9.92
2023-04-11T16:06:56.818Z,9.87
2023-04-11T16:09:42.587Z,9.80
2023-04-11T16:12:29.738Z,9.78
2023-04-11T16:15:15.588Z,9.75
2023-04-11T16:18:01.433Z,9.72
2023-04-11T16:20:47.725Z,9.71
2023-04-11T16:23:33.542Z,9.66
2023-04-11T16:26:19.365Z,9.63
2023-04-11T16:29:06.541Z,9.59
2023-04-11T16:31:52.231Z,9.57
2023-04-11T16:34:37.939Z,9.57
2023-04-11T16:37:23.802Z,9.52
2023-04-11T16:40:11.070Z,9.49
2023-04-11T16:42:57.269Z,9.47
2023-04-11T16:45:45.041Z,9.45
2023-04-11T16:48:31.510Z,9.43
2023-04-11T16:51:18.325Z,9.43
2023-04-11T16:54:09.291Z,9.40
2023-04-11T16:56:55.662Z,9.38
2023-04-11T16:59:41.847Z,9.35
2023-04-11T17:02:29.576Z,9.35
2023-04-11T17:05:18.741Z,9.33
2023-04-11T17:08:04.924Z,9.31
2023-04-11T17:10:51.015Z,9.30
2023-04-11T17:13:37.215Z,9.24
2023-04-11T17:16:23.099Z,9.22
2023-04-11T17:19:10.727Z,9.21
2023-04-11T17:21:57.405Z,9.19
2023-04-11T17:24:43.063Z,9.14
2023-04-11T17:27:29.970Z,9.08
2023-04-11T17:30:16.657Z,9.02
2023-04-11T17:33:02.656Z,8.98
2023-04-11T17:35:50.341Z,8.99
2023-04-11T17:38:37.524Z,8.93
2023-04-11T17:41:23.651Z,8.85
2023-04-11T17:44:09.389Z,8.81
2023-04-11T17:46:55.586Z,8.74
2023-04-11T17:49:41.449Z,8.64
2023-04-11T17:52:28.581Z,8.64
2023-04-11T17:55:15.362Z,8.55
2023-04-11T17:58:01.172Z,8.51
2023-04-11T18:00:55.712Z,8.41
2023-04-11T18:03:43.960Z,8.36
2023-04-11T18:06:29.892Z,8.26
2023-04-11T18:09:17.574Z,8.25
2023-04-11T18:12:03.990Z,8.16
2023-04-11T18:14:50.774Z,8.08
2023-04-11T18:17:36.889Z,8.01
2023-04-11T18:20:22.895Z,7.88
2023-04-11T18:23:09.138Z,7.80
2023-04-11T18:25:56.560Z,7.75
2023-04-11T18:28:42.432Z,7.65
2023-04-11T18:31:28.297Z,7.55
2023-04-11T18:34:14.346Z,7.44
2023-04-11T18:37:00.699Z,7.34
2023-04-11T18:39:46.936Z,7.23
2023-04-11T18:42:34.008Z,7.14
2023-04-11T18:45:21.698Z,7.03
2023-04-11T18:48:07.987Z,6.89
2023-04-11T18:51:00.391Z,6.80
2023-04-11T18:53:46.224Z,6.72
2023-04-11T18:56:32.329Z,6.61
2023-04-11T18:59:23.689Z,6.54
2023-04-11T19:02:11.633Z,6.39
2023-04-11T19:04:57.872Z,6.29
2023-04-11T19:07:44.110Z,6.24
2023-04-11T19:10:30.277Z,6.20
2023-04-11T19:13:16.401Z,6.10
2023-04-11T19:16:04.172Z,5.97
2023-04-11T19:18:50.266Z,5.86
2023-04-11T19:21:36.124Z,5.77
2023-04-11T19:24:22.232Z,5.68
2023-04-11T19:27:08.624Z,5.60
2023-04-11T19:29:54.757Z,5.56
2023-04-11T19:32:45.569Z,5.54
2023-04-11T19:35:32.461Z,5.48
2023-04-11T19:38:18.175Z,5.45
2023-04-11T19:41:10.473Z,5.40
2023-04-11T19:43:56.723Z,5.38
2023-04-11T19:46:42.874Z,5.36
2023-04-11T19:49:31.820Z,5.32
2023-04-11T19:52:18.172Z,5.27
2023-04-11T19:55:04.546Z,5.23
2023-04-11T19:57:59.022Z,5.18
2023-04-11T20:00:46.004Z,5.16
2023-04-11T20:03:33.140Z,5.06
2023-04-11T20:06:22.715Z,5.00
2023-04-11T20:09:09.193Z,4.92
2023-04-11T20:11:56.693Z,4.83
2023-04-11T20:14:48.835Z,4.77
2023-04-11T20:17:34.962Z,4.68
2023-04-11T20:20:22.092Z,4.61
2023-04-11T20:23:12.256Z,4.55
2023-04-11T20:26:02.244Z,4.48
2023-04-11T20:28:49.655Z,4.44
2023-04-11T20:31:38.965Z,4.38
2023-04-11T20:34:26.874Z,4.31
2023-04-11T20:37:17.077Z,4.24
2023-04-11T20:40:07.931Z,4.18
2023-04-11T20:42:56.428Z,4.09
2023-04-11T20:45:42.912Z,4.05
2023-04-11T20:48:30.018Z,3.94
2023-04-11T20:51:16.249Z,3.85
2023-04-11T20:54:01.850Z,3.83
2023-04-11T20:56:49.087Z,3.79
2023-04-11T20:59:36.224Z,3.77
2023-04-11T21:02:22.223Z,3.70
2023-04-11T21:05:09.435Z,3.64
2023-04-11T21:07:55.497Z,3.58
2023-04-11T21:10:41.073Z,3.54
2023-04-11T21:13:28.379Z,3.49
2023-04-11T21:16:14.112Z,3.44
2023-04-11T21:18:59.836Z,3.36
2023-04-11T21:21:45.873Z,3.30
2023-04-11T21:24:32.262Z,3.27
2023-04-11T21:27:18.087Z,3.25
2023-04-11T21:30:06.161Z,3.19
2023-04-11T21:32:52.134Z,3.17
2023-04-11T21:35:38.463Z,3.12
2023-04-11T21:38:24.464Z,3.08
2023-04-11T21:41:10.666Z,3.03
2023-04-11T21:43:56.844Z,2.98
2023-04-11T21:46:44.745Z,2.98
2023-04-11T21:49:30.622Z,2.94
2023-04-11T21:52:16.305Z,2.91
2023-04-11T21:55:01.971Z,2.85
2023-04-11T21:57:47.729Z,2.85
2023-04-11T22:00:33.559Z,2.81
2023-04-11T22:03:20.990Z,2.74
2023-04-11T22:06:07.393Z,2.72
2023-04-11T22:08:53.391Z,2.69
2023-04-11T22:11:39.171Z,2.65
2023-04-11T22:14:27.406Z,2.60
2023-04-11T22:17:14.390Z,2.56
2023-04-11T22:20:01.492Z,2.55
2023-04-11T22:22:47.935Z,2.53
2023-04-11T22:25:34.457Z,2.48
2023-04-11T22:28:20.306Z,2.41
2023-04-11T22:31:06.429Z,2.42
2023-04-11T22:33:52.757Z,2.39
2023-04-11T22:36:39.809Z,2.38
2023-04-11T22:39:25.888Z,2.35
2023-04-11T22:42:12.642Z,2.34
2023-04-11T22:44:58.643Z,2.30
2023-04-11T22:47:45.666Z,2.27
2023-04-11T22:50:32.911Z,2.27
2023-04-11T22:53:20.082Z,2.25
2023-04-11T22:56:06.163Z,2.21
2023-04-11T22:58:52.276Z,2.18
2023-04-11T23:01:38.467Z,2.11
2023-04-11T23:04:24.650Z,2.08
2023-04-11T23:07:10.892Z,2.07
2023-04-11T23:10:00.985Z,2.09
2023-04-11T23:12:47.319Z,2.07
2023-04-11T23:15:33.419Z,2.07
2023-04-11T23:18:19.561Z,2.07
2023-04-11T23:21:05.793Z,2.08
2023-04-11T23:23:52.240Z,2.06
2023-04-11T23:26:39.595Z,2.04
2023-04-11T23:29:25.855Z,2.02
2023-04-11T23:32:11.932Z,2.01
2023-04-11T23:34:57.834Z,2.02
2023-04-11T23:37:44.706Z,2.02
2023-04-11T23:40:31.741Z,2.00
2023-04-11T23:43:18.791Z,2.00
2023-04-11T23:46:04.889Z,1.97
2023-04-11T23:48:51.188Z,1.93
2023-04-11T23:51:37.244Z,1.98
2023-04-11T23:54:23.075Z,1.99
2023-04-11T23:57:08.712Z,2.02
2023-04-11T23:59:55.969Z,2.03
